createdAt,value
2016-02-26T00:00:19.544Z,85
2016-02-26T00:01:20.093Z,85
2016-02-26T00:02:20.646Z,85
2016-02-26T00:03:21.212Z,85
2016-02-26T00:04:21.792Z,85
2016-02-26T00:05:22.420Z,85
2016-02-26T00:06:22.876Z,85
2016-02-26T00:07:23.425Z,85
2016-02-26T00:08:24.021Z,85
2016-02-26T00:09:25.070Z,85
2016-02-26T00:10:25.605Z,85
2016-02-26T00:11:26.139Z,85
2016-02-26T00:12:26.704Z,85
2016-02-26T00:13:27.613Z,85
2016-02-26T00:14:28.304Z,85
2016-02-26T00:15:29.119Z,85
2016-02-26T00:16:29.918Z,85
2016-02-26T00:17:30.749Z,85
2016-02-26T00:18:31.595Z,85
2016-02-26T00:19:32.661Z,85
2016-02-26T00:20:33.414Z,85
2016-02-26T00:21:34.228Z,85
2016-02-26T00:22:35.278Z,85
2016-02-26T00:23:36.343Z,85
2016-02-26T00:24:37.424Z,85
2016-02-26T00:25:38.474Z,85
2016-02-26T00:26:39.648Z,85
2016-02-26T00:27:40.605Z,85
2016-02-26T00:28:41.700Z,85
2016-02-26T00:29:42.843Z,85
2016-02-26T00:30:43.768Z,85
2016-02-26T00:31:44.833Z,85
2016-02-26T00:32:45.883Z,85
2016-02-26T00:33:46.948Z,85
2016-02-26T00:34:48.013Z,85
2016-02-26T00:35:49.079Z,85
2016-02-26T00:36:50.268Z,85
2016-02-26T00:37:51.193Z,85
2016-02-26T00:38:52.305Z,85
2016-02-26T00:39:53.308Z,85
2016-02-26T00:40:54.373Z,85
2016-02-26T00:41:55.454Z,85
2016-02-26T00:42:56.503Z,85
2016-02-26T00:43:57.553Z,85
2016-02-26T00:44:58.728Z,85
2016-02-26T00:45:59.700Z,85
2016-02-26T00:47:00.858Z,85
2016-02-26T00:48:01.814Z,85
2016-02-26T00:49:02.941Z,85
2016-02-26T00:50:03.913Z,85
2016-02-26T00:51:04.978Z,85
2016-02-26T00:52:06.169Z,85
2016-02-26T00:53:07.109Z,85
2016-02-26T00:54:08.158Z,85
2016-02-26T00:55:09.224Z,85
2016-02-26T00:56:10.288Z,86
2016-02-26T00:57:11.588Z,86
2016-02-26T00:58:13.013Z,85
2016-02-26T00:59:14.016Z,86
2016-02-26T01:00:15.144Z,86
2016-02-26T01:01:16.380Z,86
2016-02-26T01:02:17.648Z,86
2016-02-26T01:03:18.963Z,86
2016-02-26T01:04:20.311Z,86
2016-02-26T01:05:21.704Z,86
2016-02-26T01:06:23.019Z,86
2016-02-26T01:07:24.212Z,86
2016-02-26T01:08:25.542Z,86
2016-02-26T01:09:26.889Z,86
2016-02-26T01:10:27.938Z,86
2016-02-26T01:11:29.461Z,86
2016-02-26T01:12:30.874Z,86
2016-02-26T01:13:32.426Z,86
2016-02-26T01:14:33.730Z,86
2016-02-26T01:15:35.173Z,86
2016-02-26T01:16:36.733Z,86
2016-02-26T01:17:38.294Z,86
2016-02-26T01:18:39.996Z,86
2016-02-26T01:19:41.494Z,86
2016-02-26T01:20:43.070Z,86
2016-02-26T01:21:44.166Z,86
2016-02-26T01:22:45.620Z,86
2016-02-26T01:23:47.293Z,86
2016-02-26T01:24:48.747Z,86
2016-02-26T01:25:50.310Z,86
2016-02-26T01:26:51.875Z,86
2016-02-26T01:27:53.439Z,86
2016-02-26T01:28:55.129Z,86
2016-02-26T01:29:56.662Z,86
2016-02-26T01:30:57.633Z,86
2016-02-26T01:31:59.213Z,86
2016-02-26T01:33:00.794Z,86
2016-02-26T01:34:02.359Z,86
2016-02-26T01:35:03.909Z,86
2016-02-26T01:36:05.474Z,86
2016-02-26T01:37:07.039Z,86
2016-02-26T01:38:08.620Z,86
2016-02-26T01:39:10.310Z,86
2016-02-26T01:40:11.797Z,86
2016-02-26T01:41:12.832Z,86
2016-02-26T01:42:14.381Z,86
2016-02-26T01:43:15.962Z,86
2016-02-26T01:44:17.512Z,86
2016-02-26T01:45:19.076Z,86
2016-02-26T01:46:20.657Z,86
2016-02-26T01:47:22.207Z,86
2016-02-26T01:48:23.898Z,86
2016-02-26T01:49:25.337Z,86
2016-02-26T01:50:26.967Z,86
2016-02-26T01:51:27.970Z,86
2016-02-26T01:52:29.551Z,86
2016-02-26T01:53:31.117Z,86
2016-02-26T01:54:32.681Z,86
2016-02-26T01:55:34.262Z,86
2016-02-26T01:56:35.922Z,86
2016-02-26T01:57:37.409Z,86
2016-02-26T01:58:38.942Z,86
2016-02-26T01:59:40.508Z,86
2016-02-26T02:00:42.135Z,86
2016-02-26T02:01:43.138Z,86
2016-02-26T02:02:44.734Z,86
2016-02-26T02:03:46.299Z,86
2016-02-26T02:04:47.849Z,86
2016-02-26T02:05:49.524Z,86
2016-02-26T02:06:50.980Z,87
2016-02-26T02:07:48.747Z,87
2016-02-26T02:08:46.532Z,87
2016-02-26T02:09:44.268Z,87
2016-02-26T02:10:42.131Z,87
2016-02-26T02:11:43.102Z,87
2016-02-26T02:12:41.043Z,87
2016-02-26T02:13:38.638Z,87
2016-02-26T02:14:36.516Z,87
2016-02-26T02:15:34.285Z,87
2016-02-26T02:16:32.068Z,87
2016-02-26T02:17:29.759Z,87
2016-02-26T02:18:27.606Z,87
2016-02-26T02:19:25.246Z,87
2016-02-26T02:20:23.108Z,87
2016-02-26T02:21:24.064Z,87
2016-02-26T02:22:21.832Z,87
2016-02-26T02:23:19.725Z,87
2016-02-26T02:24:17.369Z,87
2016-02-26T02:25:15.137Z,87
2016-02-26T02:26:12.906Z,87
2016-02-26T02:27:10.814Z,87
2016-02-26T02:28:08.442Z,87
2016-02-26T02:29:06.211Z,87
2016-02-26T02:30:04.292Z,87
2016-02-26T02:31:05.294Z,87
2016-02-26T02:32:03.328Z,87
2016-02-26T02:33:01.330Z,87
2016-02-26T02:33:59.365Z,87
2016-02-26T02:34:57.383Z,87
2016-02-26T02:35:55.402Z,87
2016-02-26T02:36:53.419Z,87
2016-02-26T02:37:51.438Z,87
2016-02-26T02:38:49.455Z,87
2016-02-26T02:39:47.552Z,87
2016-02-26T02:40:48.540Z,87
2016-02-26T02:41:46.558Z,87
2016-02-26T02:42:44.577Z,87
2016-02-26T02:43:42.719Z,87
2016-02-26T02:44:40.628Z,87
2016-02-26T02:45:38.756Z,87
2016-02-26T02:46:36.650Z,87
2016-02-26T02:47:34.684Z,87
2016-02-26T02:48:32.827Z,87
2016-02-26T02:49:30.782Z,87
2016-02-26T02:50:31.801Z,87
2016-02-26T02:51:29.819Z,87
2016-02-26T02:52:27.834Z,87
2016-02-26T02:53:25.853Z,87
2016-02-26T02:54:23.887Z,87
2016-02-26T02:55:21.874Z,87
2016-02-26T02:57:17.926Z,87
2016-02-26T02:58:15.991Z,87
2016-02-26T02:59:14.025Z,87
2016-02-26T03:00:15.138Z,87
2016-02-26T03:01:13.156Z,87
2016-02-26T03:02:11.081Z,87
2016-02-26T03:03:09.208Z,87
2016-02-26T03:04:07.117Z,87
2016-02-26T03:06:03.174Z,87
2016-02-26T03:07:01.193Z,87
2016-02-26T03:07:59.211Z,87
2016-02-26T03:08:57.292Z,87
2016-02-26T03:09:58.327Z,87
2016-02-26T03:10:56.313Z,87
2016-02-26T03:11:54.333Z,87
2016-02-26T03:12:52.350Z,87
2016-02-26T03:13:50.556Z,87
2016-02-26T03:14:48.403Z,87
2016-02-26T03:15:46.436Z,87
2016-02-26T03:16:44.439Z,87
2016-02-26T03:17:42.582Z,87
2016-02-26T03:18:40.554Z,87
2016-02-26T03:19:41.588Z,87
2016-02-26T03:20:39.575Z,87
2016-02-26T03:21:37.624Z,87
2016-02-26T03:22:35.612Z,87
2016-02-26T03:23:33.645Z,87
2016-02-26T03:24:31.649Z,87
2016-02-26T03:25:29.743Z,87
2016-02-26T03:26:27.807Z,87
2016-02-26T03:27:25.701Z,87
2016-02-26T03:28:23.796Z,87
2016-02-26T03:29:24.799Z,87
2016-02-26T03:30:22.927Z,87
2016-02-26T03:31:20.837Z,87
2016-02-26T03:32:19.011Z,87
2016-02-26T03:33:16.873Z,87
2016-02-26T03:34:14.906Z,87
2016-02-26T03:35:12.925Z,87
2016-02-26T03:36:11.068Z,87
2016-02-26T03:37:08.961Z,87
2016-02-26T03:38:07.168Z,87
2016-02-26T03:39:08.076Z,87
2016-02-26T03:40:06.079Z,87
2016-02-26T03:41:04.206Z,87
2016-02-26T03:42:02.116Z,87
2016-02-26T03:43:00.244Z,87
2016-02-26T03:43:58.184Z,87
2016-02-26T03:44:56.186Z,87
2016-02-26T03:45:54.220Z,87
2016-02-26T03:46:52.222Z,87
2016-02-26T03:47:50.319Z,87
2016-02-26T03:48:51.291Z,87
2016-02-26T03:49:49.309Z,87
2016-02-26T03:50:47.344Z,87
2016-02-26T03:51:45.486Z,87
2016-02-26T03:52:43.379Z,87
2016-02-26T03:53:41.398Z,87
2016-02-26T03:54:39.541Z,87
2016-02-26T03:55:37.560Z,87
2016-02-26T03:56:35.454Z,87
2016-02-26T03:57:33.565Z,87
2016-02-26T03:58:34.568Z,87
2016-02-26T03:59:32.554Z,87
2016-02-26T04:00:30.601Z,87
2016-02-26T04:01:28.604Z,87
2016-02-26T04:02:26.638Z,87
2016-02-26T04:03:24.641Z,87
2016-02-26T04:04:22.659Z,87
2016-02-26T04:05:20.693Z,87
2016-02-26T04:06:18.820Z,87
2016-02-26T04:07:16.792Z,87
2016-02-26T04:08:17.779Z,87
2016-02-26T04:09:15.797Z,87
2016-02-26T04:10:13.831Z,87
2016-02-26T04:11:11.850Z,87
2016-02-26T04:12:09.868Z,87
2016-02-26T04:13:08.058Z,87
2016-02-26T04:14:06.031Z,87
2016-02-26T04:15:04.064Z,87
2016-02-26T04:16:01.958Z,87
2016-02-26T04:17:00.038Z,87
2016-02-26T04:18:01.025Z,87
2016-02-26T04:18:59.074Z,87
2016-02-26T04:19:57.077Z,87
2016-02-26T04:20:55.096Z,87
2016-02-26T04:21:53.146Z,87
2016-02-26T04:22:51.132Z,87
2016-02-26T04:23:49.151Z,87
2016-02-26T04:24:47.184Z,87
2016-02-26T04:25:45.327Z,87
2016-02-26T04:26:43.269Z,87
2016-02-26T04:27:44.412Z,87
2016-02-26T04:28:42.305Z,87
2016-02-26T04:29:40.432Z,87
2016-02-26T04:30:38.341Z,87
2016-02-26T04:31:36.390Z,87
2016-02-26T04:32:34.379Z,87
2016-02-26T04:33:32.394Z,87
2016-02-26T04:34:30.443Z,87
2016-02-26T04:35:28.446Z,87
2016-02-26T04:36:26.636Z,87
2016-02-26T04:37:27.561Z,87
2016-02-26T04:38:25.547Z,87
2016-02-26T04:39:23.566Z,87
2016-02-26T04:40:21.585Z,87
2016-02-26T04:41:19.743Z,87
2016-02-26T04:42:17.636Z,87
2016-02-26T04:43:15.905Z,87
2016-02-26T04:44:13.923Z,87
2016-02-26T04:45:12.067Z,87
2016-02-26T04:46:10.023Z,87
2016-02-26T04:47:11.134Z,87
2016-02-26T04:48:09.059Z,87
2016-02-26T04:49:07.311Z,87
2016-02-26T04:50:05.361Z,87
2016-02-26T04:51:03.363Z,87
2016-02-26T04:52:01.397Z,87
2016-02-26T04:52:59.651Z,87
2016-02-26T04:53:57.685Z,87
2016-02-26T04:54:55.812Z,87
2016-02-26T04:55:53.893Z,87
2016-02-26T04:56:54.770Z,87
2016-02-26T04:57:52.914Z,87
2016-02-26T04:58:51.074Z,87
2016-02-26T04:59:49.466Z,87
2016-02-26T05:00:47.610Z,87
2016-02-26T05:01:45.909Z,87
2016-02-26T05:02:44.209Z,87
2016-02-26T05:03:42.445Z,87
2016-02-26T05:04:40.714Z,87
2016-02-26T05:05:39.051Z,87
2016-02-26T05:06:40.054Z,87
2016-02-26T05:07:38.337Z,87
2016-02-26T05:08:36.637Z,87
2016-02-26T05:09:34.887Z,87
2016-02-26T05:10:33.155Z,87
2016-02-26T05:11:31.455Z,87
2016-02-26T05:12:29.692Z,87
2016-02-26T05:13:27.976Z,87
2016-02-26T05:14:26.120Z,87
2016-02-26T05:15:24.325Z,87
2016-02-26T05:16:25.328Z,87
2016-02-26T05:17:23.720Z,87
2016-02-26T05:18:21.881Z,87
2016-02-26T05:19:20.148Z,87
2016-02-26T05:20:18.448Z,87
2016-02-26T05:21:16.716Z,87
2016-02-26T05:22:14.984Z,87
2016-02-26T05:23:13.253Z,87
2016-02-26T05:24:11.646Z,87
2016-02-26T05:25:09.883Z,87
2016-02-26T05:26:10.870Z,87
2016-02-26T05:27:09.139Z,87
2016-02-26T05:28:07.547Z,87
2016-02-26T05:29:05.722Z,87
2016-02-26T05:30:03.958Z,87
2016-02-26T05:31:02.228Z,87
2016-02-26T05:32:00.511Z,87
2016-02-26T05:32:58.779Z,87
2016-02-26T05:33:57.048Z,87
2016-02-26T05:34:55.519Z,87
2016-02-26T05:35:56.397Z,87
2016-02-26T05:36:54.791Z,87
2016-02-26T05:37:52.949Z,87
2016-02-26T05:38:51.218Z,87
2016-02-26T05:39:49.517Z,87
2016-02-26T05:40:47.801Z,87
2016-02-26T05:41:46.147Z,87
2016-02-26T05:42:44.493Z,87
2016-02-26T05:43:42.575Z,87
2016-02-26T05:44:41.031Z,87
2016-02-26T05:45:41.909Z,87
2016-02-26T05:46:40.317Z,87
2016-02-26T05:47:38.461Z,87
2016-02-26T05:48:36.742Z,87
2016-02-26T05:49:35.010Z,87
2016-02-26T05:50:33.279Z,87
2016-02-26T05:51:31.547Z,87
2016-02-26T05:52:29.831Z,87
2016-02-26T05:53:28.225Z,87
2016-02-26T05:54:26.556Z,87
2016-02-26T05:55:27.558Z,87
2016-02-26T05:56:25.716Z,87
2016-02-26T05:57:24.017Z,87
2016-02-26T05:58:22.394Z,87
2016-02-26T05:59:20.646Z,87
2016-02-26T06:00:18.836Z,87
2016-02-26T06:01:17.089Z,87
2016-02-26T06:02:15.358Z,87
2016-02-26T06:03:13.642Z,87
2016-02-26T06:04:11.988Z,87
2016-02-26T06:05:13.085Z,87
2016-02-26T06:06:11.243Z,87
2016-02-26T06:07:09.637Z,87
2016-02-26T06:08:07.796Z,87
2016-02-26T06:09:06.080Z,87
2016-02-26T06:10:04.504Z,87
2016-02-26T06:11:02.663Z,87
2016-02-26T06:12:00.915Z,87
2016-02-26T06:12:59.199Z,87
2016-02-26T06:13:57.515Z,87
2016-02-26T06:14:58.518Z,87
2016-02-26T06:15:56.802Z,87
2016-02-26T06:16:55.179Z,87
2016-02-26T06:17:53.338Z,87
2016-02-26T06:18:51.606Z,87
2016-02-26T06:19:49.875Z,87
2016-02-26T06:20:48.158Z,87
2016-02-26T06:21:46.459Z,88
2016-02-26T06:22:44.976Z,87
2016-02-26T06:23:43.417Z,87
2016-02-26T06:24:44.310Z,88
2016-02-26T06:25:42.828Z,87
2016-02-26T06:26:41.128Z,88
2016-02-26T06:27:39.628Z,88
2016-02-26T06:28:38.161Z,87
2016-02-26T06:29:36.431Z,88
2016-02-26T06:30:34.949Z,87
2016-02-26T06:31:33.264Z,88
2016-02-26T06:32:31.875Z,88
2016-02-26T06:33:30.378Z,88
2016-02-26T06:34:31.459Z,88
2016-02-26T06:35:29.994Z,88
2016-02-26T06:36:28.402Z,88
2016-02-26T06:37:26.921Z,88
2016-02-26T06:38:25.470Z,88
2016-02-26T06:39:24.019Z,88
2016-02-26T06:40:22.521Z,88
2016-02-26T06:41:21.041Z,88
2016-02-26T06:42:19.571Z,88
2016-02-26T06:43:18.276Z,88
2016-02-26T06:44:19.169Z,88
2016-02-26T06:45:17.703Z,88
2016-02-26T06:46:16.223Z,88
2016-02-26T06:47:14.741Z,88
2016-02-26T06:48:13.274Z,88
2016-02-26T06:49:11.808Z,88
2016-02-26T06:50:10.342Z,88
2016-02-26T06:51:08.986Z,88
2016-02-26T06:52:07.394Z,88
2016-02-26T06:53:05.960Z,88
2016-02-26T06:54:07.088Z,88
2016-02-26T06:55:05.497Z,88
2016-02-26T06:56:04.030Z,88
2016-02-26T06:57:02.548Z,88
2016-02-26T06:58:01.082Z,88
2016-02-26T06:58:59.616Z,88
2016-02-26T06:59:58.151Z,88
2016-02-26T07:00:56.779Z,88
2016-02-26T07:01:55.202Z,88
2016-02-26T07:02:53.784Z,88
2016-02-26T07:03:54.817Z,88
2016-02-26T07:04:53.351Z,88
2016-02-26T07:05:51.838Z,88
2016-02-26T07:06:50.373Z,88
2016-02-26T07:07:48.907Z,88
2016-02-26T07:08:47.425Z,88
2016-02-26T07:09:45.942Z,88
2016-02-26T07:10:44.476Z,88
2016-02-26T07:11:43.137Z,88
2016-02-26T07:12:41.590Z,88
2016-02-26T07:13:42.595Z,88
2016-02-26T07:14:41.126Z,88
2016-02-26T07:15:39.659Z,88
2016-02-26T07:16:38.319Z,88
2016-02-26T07:17:36.836Z,88
2016-02-26T07:18:35.245Z,88
2016-02-26T07:19:33.779Z,88
2016-02-26T07:20:32.423Z,88
2016-02-26T07:21:30.942Z,88
2016-02-26T07:22:29.413Z,88
2016-02-26T07:23:30.525Z,88
2016-02-26T07:24:28.965Z,88
2016-02-26T07:25:27.562Z,88
2016-02-26T07:26:26.111Z,88
2016-02-26T07:27:24.520Z,88
2016-02-26T07:28:23.054Z,88
2016-02-26T07:29:21.697Z,88
2016-02-26T07:30:20.231Z,88
2016-02-26T07:31:18.640Z,88
2016-02-26T07:32:17.220Z,88
2016-02-26T07:33:18.224Z,88
2016-02-26T07:34:16.758Z,88
2016-02-26T07:35:15.276Z,88
2016-02-26T07:36:13.810Z,88
2016-02-26T07:37:12.328Z,88
2016-02-26T07:38:10.987Z,88
2016-02-26T07:39:09.427Z,88
2016-02-26T07:40:07.946Z,88
2016-02-26T07:41:06.448Z,88
2016-02-26T07:42:05.045Z,88
2016-02-26T07:43:06.031Z,88
2016-02-26T07:44:04.690Z,88
2016-02-26T07:45:03.083Z,88
2016-02-26T07:46:01.634Z,88
2016-02-26T07:47:00.153Z,88
2016-02-26T07:47:58.670Z,88
2016-02-26T07:48:57.204Z,88
2016-02-26T07:49:55.769Z,88
2016-02-26T07:50:54.256Z,88
2016-02-26T07:51:52.868Z,88
2016-02-26T07:52:53.840Z,88
2016-02-26T07:53:52.374Z,88
2016-02-26T07:54:50.892Z,88
2016-02-26T07:55:49.535Z,88
2016-02-26T07:56:47.960Z,88
2016-02-26T07:57:46.602Z,88
2016-02-26T07:58:45.013Z,88
2016-02-26T07:59:43.528Z,88
2016-02-26T08:00:42.063Z,88
2016-02-26T08:01:40.768Z,88
2016-02-26T08:02:41.661Z,88
2016-02-26T08:03:40.179Z,88
2016-02-26T08:04:38.698Z,88
2016-02-26T08:05:37.371Z,88
2016-02-26T08:06:35.749Z,88
2016-02-26T08:07:34.284Z,88
2016-02-26T08:08:32.834Z,88
2016-02-26T08:09:31.337Z,88
2016-02-26T08:10:29.870Z,88
2016-02-26T08:11:28.451Z,88
2016-02-26T08:12:29.470Z,88
2016-02-26T08:13:28.018Z,88
2016-02-26T08:14:26.537Z,88
2016-02-26T08:15:25.040Z,88
2016-02-26T08:16:23.558Z,88
2016-02-26T08:17:22.092Z,88
2016-02-26T08:18:20.611Z,88
2016-02-26T08:19:19.128Z,88
2016-02-26T08:20:17.819Z,88
2016-02-26T08:21:16.384Z,88
2016-02-26T08:22:17.371Z,88
2016-02-26T08:23:15.936Z,88
2016-02-26T08:24:14.330Z,88
2016-02-26T08:25:12.817Z,88
2016-02-26T08:26:11.616Z,88
2016-02-26T08:27:10.150Z,88
2016-02-26T08:28:08.669Z,88
2016-02-26T08:29:07.186Z,88
2016-02-26T08:30:05.721Z,88
2016-02-26T08:31:04.317Z,88
2016-02-26T08:32:05.288Z,88
2016-02-26T08:33:04.072Z,88
2016-02-26T08:34:02.888Z,88
2016-02-26T08:35:01.765Z,88
2016-02-26T08:36:00.440Z,88
2016-02-26T08:36:59.193Z,88
2016-02-26T08:37:57.976Z,88
2016-02-26T08:38:56.698Z,88
2016-02-26T08:39:55.544Z,88
2016-02-26T08:40:54.375Z,89
2016-02-26T08:41:55.409Z,88
2016-02-26T08:42:54.287Z,88
2016-02-26T08:43:52.945Z,89
2016-02-26T08:44:51.980Z,89
2016-02-26T08:45:50.998Z,89
2016-02-26T08:46:50.048Z,88
2016-02-26T08:47:48.831Z,89
2016-02-26T08:48:47.803Z,89
2016-02-26T08:49:46.897Z,89
2016-02-26T08:50:45.993Z,89
2016-02-26T08:51:46.995Z,89
2016-02-26T08:53:45.080Z,89
2016-02-26T08:54:44.113Z,89
2016-02-26T08:55:43.241Z,89
2016-02-26T08:56:42.166Z,89
2016-02-26T08:57:41.200Z,89
2016-02-26T08:58:40.264Z,89
2016-02-26T08:59:39.377Z,89
2016-02-26T09:00:38.364Z,89
2016-02-26T09:01:39.382Z,89
2016-02-26T09:02:38.510Z,89
2016-02-26T09:03:37.544Z,89
2016-02-26T09:04:36.485Z,89
2016-02-26T09:05:35.612Z,89
2016-02-26T09:06:34.646Z,89
2016-02-26T09:07:33.571Z,89
2016-02-26T09:08:32.604Z,89
2016-02-26T09:09:31.638Z,89
2016-02-26T09:10:30.719Z,89
2016-02-26T09:11:31.846Z,89
2016-02-26T09:12:30.771Z,89
2016-02-26T09:13:29.837Z,89
2016-02-26T09:14:28.839Z,89
2016-02-26T09:15:27.873Z,89
2016-02-26T09:16:26.907Z,89
2016-02-26T09:17:25.941Z,89
2016-02-26T09:18:24.975Z,89
2016-02-26T09:19:24.009Z,89
2016-02-26T09:20:23.199Z,89
2016-02-26T09:21:24.201Z,89
2016-02-26T09:22:23.236Z,89
2016-02-26T09:23:22.175Z,89
2016-02-26T09:24:21.194Z,89
2016-02-26T09:25:20.244Z,89
2016-02-26T09:26:19.308Z,89
2016-02-26T09:27:18.296Z,89
2016-02-26T09:28:17.345Z,89
2016-02-26T09:29:16.427Z,88
2016-02-26T09:30:15.335Z,88
2016-02-26T09:31:16.260Z,87
2016-02-26T09:32:14.481Z,87
2016-02-26T09:33:12.499Z,86
2016-02-26T09:34:14.080Z,86
2016-02-26T09:35:15.646Z,86
2016-02-26T09:36:17.210Z,86
2016-02-26T09:37:18.526Z,85
2016-02-26T09:38:19.575Z,85
2016-02-26T09:39:20.641Z,85
2016-02-26T09:40:21.784Z,85
2016-02-26T09:41:22.771Z,85
2016-02-26T09:42:23.837Z,85
2016-02-26T09:43:24.917Z,85
2016-02-26T09:44:25.967Z,85
2016-02-26T09:45:27.000Z,85
2016-02-26T09:46:28.066Z,85
2016-02-26T09:47:29.115Z,85
2016-02-26T09:48:30.305Z,85
2016-02-26T09:49:31.245Z,85
2016-02-26T09:50:32.670Z,86
2016-02-26T09:51:33.642Z,86
2016-02-26T09:52:35.223Z,86
2016-02-26T09:53:32.992Z,87
2016-02-26T09:54:31.009Z,87
2016-02-26T09:55:29.059Z,87
2016-02-26T09:56:27.062Z,87
2016-02-26T09:57:25.345Z,87
2016-02-26T09:58:23.614Z,87
2016-02-26T09:59:22.272Z,87
2016-02-26T10:00:20.728Z,87
2016-02-26T10:01:21.825Z,87
2016-02-26T10:02:20.233Z,87
2016-02-26T10:03:18.877Z,87
2016-02-26T10:04:17.317Z,88
2016-02-26T10:05:16.069Z,88
2016-02-26T10:06:14.901Z,88
2016-02-26T10:07:13.654Z,88
2016-02-26T10:08:12.671Z,88
2016-02-26T10:09:11.705Z,88
2016-02-26T10:10:10.817Z,88
2016-02-26T10:11:11.805Z,88
2016-02-26T10:12:10.838Z,88
2016-02-26T10:13:09.873Z,88
2016-02-26T10:14:08.923Z,88
2016-02-26T10:15:07.941Z,88
2016-02-26T10:16:07.006Z,88
2016-02-26T10:17:05.756Z,88
2016-02-26T10:18:04.544Z,88
2016-02-26T10:19:03.299Z,88
2016-02-26T10:20:02.119Z,88
2016-02-26T10:21:03.112Z,88
2016-02-26T10:22:01.885Z,88
2016-02-26T10:23:00.930Z,88
2016-02-26T10:23:59.960Z,88
2016-02-26T10:24:59.004Z,88
2016-02-26T10:25:58.003Z,88
2016-02-26T10:26:57.158Z,88
2016-02-26T10:27:56.190Z,88
2016-02-26T10:28:55.097Z,88
2016-02-26T10:29:54.192Z,88
2016-02-26T10:30:55.318Z,88
2016-02-26T10:31:54.226Z,88
2016-02-26T10:32:53.416Z,88
2016-02-26T10:33:52.309Z,88
2016-02-26T10:34:51.325Z,88
2016-02-26T10:35:50.357Z,88
2016-02-26T10:36:49.392Z,88
2016-02-26T10:37:48.440Z,88
2016-02-26T10:38:47.458Z,89
2016-02-26T10:39:46.569Z,88
2016-02-26T10:40:47.541Z,89
2016-02-26T10:41:46.606Z,89
2016-02-26T10:42:45.640Z,89
2016-02-26T10:43:44.690Z,89
2016-02-26T10:44:43.707Z,89
2016-02-26T10:45:42.726Z,89
2016-02-26T10:46:41.745Z,89
2016-02-26T10:47:40.809Z,89
2016-02-26T10:48:39.812Z,89
2016-02-26T10:49:39.050Z,89
2016-02-26T10:50:40.036Z,89
2016-02-26T10:51:39.071Z,89
2016-02-26T10:52:38.042Z,89
2016-02-26T10:53:37.123Z,89
2016-02-26T10:54:36.047Z,89
2016-02-26T10:55:35.097Z,89
2016-02-26T10:56:34.224Z,89
2016-02-26T10:57:33.149Z,89
2016-02-26T10:58:32.292Z,89
2016-02-26T10:59:31.280Z,89
2016-02-26T11:00:32.407Z,88
2016-02-26T11:01:31.066Z,88
2016-02-26T11:02:29.835Z,88
2016-02-26T11:03:28.618Z,88
2016-02-26T11:04:27.511Z,89
2016-02-26T11:05:26.436Z,89
2016-02-26T11:06:25.485Z,89
2016-02-26T11:07:24.504Z,89
2016-02-26T11:08:23.646Z,89
2016-02-26T11:09:22.744Z,89
2016-02-26T11:10:23.763Z,89
2016-02-26T11:11:22.937Z,89
2016-02-26T11:12:22.236Z,89
2016-02-26T11:13:21.880Z,89
2016-02-26T11:14:21.304Z,89
2016-02-26T11:15:20.963Z,89
2016-02-26T11:16:20.497Z,89
2016-02-26T11:17:19.937Z,89
2016-02-26T11:18:19.471Z,90
2016-02-26T11:19:19.317Z,90
2016-02-26T11:20:20.336Z,90
2016-02-26T11:21:20.120Z,90
2016-02-26T11:22:20.278Z,90
2016-02-26T11:23:20.219Z,90
2016-02-26T11:24:20.377Z,90
2016-02-26T11:25:20.442Z,90
2016-02-26T11:26:20.492Z,90
2016-02-26T11:27:20.527Z,90
2016-02-26T11:28:20.560Z,90
2016-02-26T11:29:20.548Z,91
2016-02-26T11:30:21.550Z,91
2016-02-26T11:31:21.850Z,91
2016-02-26T11:32:22.274Z,91
2016-02-26T11:33:22.824Z,91
2016-02-26T11:34:23.264Z,91
2016-02-26T11:35:23.938Z,91
2016-02-26T11:36:24.488Z,91
2016-02-26T11:37:24.929Z,91
2016-02-26T11:38:25.478Z,91
2016-02-26T11:39:26.106Z,91
2016-02-26T11:40:27.202Z,91
2016-02-26T11:41:27.642Z,91
2016-02-26T11:42:28.333Z,91
2016-02-26T11:43:28.757Z,91
2016-02-26T11:44:29.432Z,91
2016-02-26T11:45:29.871Z,91
2016-02-26T11:46:30.796Z,91
2016-02-26T11:47:31.596Z,91
2016-02-26T11:48:32.318Z,91
2016-02-26T11:49:33.164Z,91
2016-02-26T11:50:34.166Z,91
2016-02-26T11:51:35.076Z,92
2016-02-26T11:52:36.140Z,92
2016-02-26T11:53:37.081Z,92
2016-02-26T11:54:38.146Z,92
2016-02-26T11:55:39.321Z,92
2016-02-26T11:56:40.261Z,92
2016-02-26T11:57:41.326Z,92
2016-02-26T11:58:42.516Z,92
2016-02-26T11:59:43.613Z,92
2016-02-26T12:00:44.616Z,92
2016-02-26T12:01:45.586Z,92
2016-02-26T12:02:46.621Z,92
2016-02-26T12:03:47.795Z,92
2016-02-26T12:04:48.782Z,92
2016-02-26T12:05:49.816Z,92
2016-02-26T12:06:50.975Z,92
2016-02-26T12:07:51.931Z,92
2016-02-26T12:08:53.090Z,92
2016-02-26T12:09:54.095Z,92
2016-02-26T12:10:55.098Z,92
2016-02-26T12:11:56.163Z,92
2016-02-26T12:12:57.462Z,92
2016-02-26T12:13:58.887Z,92
2016-02-26T12:15:00.093Z,92
2016-02-26T12:16:01.393Z,92
2016-02-26T12:17:02.739Z,92
2016-02-26T12:18:04.148Z,92
2016-02-26T12:19:05.338Z,92
2016-02-26T12:20:06.715Z,92
2016-02-26T12:21:07.843Z,92
2016-02-26T12:22:09.034Z,92
2016-02-26T12:23:10.333Z,92
2016-02-26T12:24:11.930Z,92
2016-02-26T12:25:13.479Z,92
2016-02-26T12:26:15.170Z,92
2016-02-26T12:28:18.191Z,92
2016-02-26T12:29:19.740Z,92
2016-02-26T12:30:21.367Z,92
2016-02-26T12:31:22.527Z,92
2016-02-26T12:32:23.936Z,92
2016-02-26T12:33:25.626Z,92
2016-02-26T12:34:27.191Z,92
2016-02-26T12:35:28.631Z,92
2016-02-26T12:36:30.352Z,92
2016-02-26T12:37:31.761Z,92
2016-02-26T12:38:33.327Z,92
2016-02-26T12:39:34.908Z,92
2016-02-26T12:40:36.519Z,92
2016-02-26T12:41:37.538Z,92
2016-02-26T12:42:39.104Z,92
2016-02-26T12:43:40.653Z,92
2016-02-26T12:44:42.343Z,92
2016-02-26T12:45:43.799Z,92
2016-02-26T12:46:45.473Z,92
2016-02-26T12:47:47.038Z,92
2016-02-26T12:48:48.495Z,92
2016-02-26T12:49:50.059Z,92
2016-02-26T12:50:51.687Z,92
2016-02-26T12:51:52.690Z,92
2016-02-26T12:52:54.365Z,92
2016-02-26T12:53:55.836Z,92
2016-02-26T12:54:57.386Z,92
2016-02-26T12:55:58.953Z,92
2016-02-26T12:57:00.456Z,92
2016-02-26T12:58:02.084Z,92
2016-02-26T12:59:03.649Z,92
2016-02-26T13:00:05.339Z,92
2016-02-26T13:01:06.951Z,92
2016-02-26T13:02:07.844Z,92
2016-02-26T13:03:09.520Z,92
2016-02-26T13:04:10.974Z,92
2016-02-26T13:05:12.540Z,92
2016-02-26T13:06:14.105Z,92
2016-02-26T13:07:15.796Z,92
2016-02-26T13:08:17.235Z,92
2016-02-26T13:09:18.926Z,92
2016-02-26T13:10:20.366Z,92
2016-02-26T13:11:21.993Z,92
2016-02-26T13:12:23.012Z,92
2016-02-26T13:13:24.687Z,92
2016-02-26T13:14:26.251Z,92
2016-02-26T13:15:27.707Z,92
2016-02-26T13:16:29.382Z,92
2016-02-26T13:17:30.854Z,92
2016-02-26T13:18:32.418Z,92
2016-02-26T13:19:33.969Z,92
2016-02-26T13:20:35.643Z,92
2016-02-26T13:21:37.270Z,92
2016-02-26T13:22:38.148Z,92
2016-02-26T13:23:39.838Z,92
2016-02-26T13:24:41.404Z,92
2016-02-26T13:25:42.844Z,92
2016-02-26T13:26:44.409Z,92
2016-02-26T13:27:45.567Z,92
2016-02-26T13:28:47.555Z,92
2016-02-26T13:29:49.121Z,93
2016-02-26T13:30:46.889Z,92
2016-02-26T13:31:48.625Z,93
2016-02-26T13:32:49.628Z,92
2016-02-26T13:33:51.069Z,92
2016-02-26T13:34:52.759Z,93
2016-02-26T13:35:50.403Z,92
2016-02-26T13:36:51.967Z,92
2016-02-26T13:37:53.548Z,92
2016-02-26T13:38:55.097Z,92
2016-02-26T13:39:56.741Z,92
2016-02-26T13:40:58.369Z,93
2016-02-26T13:41:56.059Z,93
2016-02-26T13:42:57.077Z,93
2016-02-26T13:43:54.851Z,93
2016-02-26T13:44:52.603Z,93
2016-02-26T13:45:50.371Z,93
2016-02-26T13:46:48.140Z,93
2016-02-26T13:47:45.908Z,93
2016-02-26T13:48:43.660Z,93
2016-02-26T13:49:41.429Z,93
2016-02-26T13:50:39.197Z,93
2016-02-26T13:51:37.028Z,93
2016-02-26T13:52:38.157Z,93
2016-02-26T13:53:35.799Z,93
2016-02-26T13:54:33.552Z,93
2016-02-26T13:55:31.430Z,93
2016-02-26T13:56:29.089Z,93
2016-02-26T13:57:26.842Z,93
2016-02-26T13:58:24.735Z,93
2016-02-26T13:59:22.487Z,93
2016-02-26T14:00:20.147Z,93
2016-02-26T14:01:17.962Z,93
2016-02-26T14:02:19.042Z,93
2016-02-26T14:03:16.733Z,93
2016-02-26T14:04:14.626Z,93
2016-02-26T14:05:12.269Z,93
2016-02-26T14:06:10.038Z,93
2016-02-26T14:07:07.791Z,93
2016-02-26T14:08:05.684Z,93
2016-02-26T14:09:03.325Z,93
2016-02-26T14:10:01.171Z,93
2016-02-26T14:10:59.174Z,93
2016-02-26T14:12:00.177Z,93